Time;durP1;ratioP1;P1;durP2;ratioP2;P2;SDS_P1;SDS_P2;PMS_P1;PMS_P2;Temp;Humidity;BMP_temperature;BMP_pressure;BME280_temperature;BME280_humidity;BME280_pressure;Samples;Min_cycle;Max_cycle;Signal;HPM_P1;HPM_P2
2023/03/28 00:01:51;;;;;;;3.65;1.13;;;;;;;-0.03;100.00;99615.97;5031493;28;20104;-78
2023/03/28 00:04:21;;;;;;;2.33;0.95;;;;;;;-0.12;100.00;99618.47;5028651;28;20034;-78
2023/03/28 00:06:47;;;;;;;3.45;1.27;;;;;;;-0.13;100.00;99611.44;5037152;28;20021;-78
2023/03/28 00:09:12;;;;;;;2.25;1.08;;;;;;;-0.25;100.00;99598.09;5010830;28;20506;-78
2023/03/28 00:11:37;;;;;;;3.00;0.95;;;;;;;-0.29;100.00;99591.34;5004996;28;20114;-78
2023/03/28 00:14:04;;;;;;;2.50;1.10;;;;;;;-0.26;100.00;99606.22;5032383;28;20148;-79
2023/03/28 00:16:33;;;;;;;3.17;1.30;;;;;;;-0.22;100.00;99610.31;5052098;28;20006;-79
2023/03/28 00:19:00;;;;;;;;;;;;;;;-0.11;100.00;99638.75;5037836;28;20033;-79
2023/03/28 00:21:29;;;;;;;2.75;1.23;;;;;;;-0.11;100.00;99630.78;5055297;28;19948;-78
2023/03/28 00:24:00;;;;;;;4.85;1.25;;;;;;;-0.06;100.00;99647.25;5025380;28;20336;-78
2023/03/28 00:26:26;;;;;;;3.25;1.20;;;;;;;-0.14;100.00;99647.81;5033336;28;20072;-78
2023/03/28 00:28:53;;;;;;;4.43;1.25;;;;;;;-0.19;100.00;99638.50;5017639;28;20116;-78
2023/03/28 00:31:19;;;;;;;3.13;1.23;;;;;;;-0.28;100.00;99624.91;5010988;28;20045;-78
2023/03/28 00:33:46;;;;;;;3.00;1.10;;;;;;;-0.12;100.00;99645.91;5017177;28;20028;-78
2023/03/28 00:36:13;;;;;;;3.13;1.40;;;;;;;-0.19;100.00;99635.84;5034139;28;20029;-78
2023/03/28 00:38:39;;;;;;;5.03;1.40;;;;;;;-0.20;100.00;99640.31;5016547;28;20014;-78
2023/03/28 00:41:08;;;;;;;3.95;1.30;;;;;;;-0.30;100.00;99636.63;5032575;28;20056;-78
2023/03/28 00:43:45;;;;;;;4.80;1.25;;;;;;;-0.23;100.00;99660.00;5034373;28;20071;-78
2023/03/28 00:46:35;;;;;;;6.88;1.38;;;;;;;-0.19;100.00;99667.75;5032313;28;20056;-77
2023/03/28 00:49:04;;;;;;;3.13;1.52;;;;;;;-0.18;100.00;99662.31;5011895;28;20053;-78
2023/03/28 00:51:33;;;;;;;2.78;1.33;;;;;;;-0.22;100.00;99666.16;5027622;28;20634;-78
2023/03/28 00:54:01;;;;;;;6.00;1.25;;;;;;;-0.27;100.00;99663.00;5014012;28;20063;-78
2023/03/28 00:56:31;;;;;;;5.68;1.40;;;;;;;-0.44;100.00;99642.97;5014497;28;20544;-78
2023/03/28 00:58:57;;;;;;;;;;;;;;;-0.26;100.00;99672.69;5028817;28;20643;-77
2023/03/28 01:01:22;;;;;;;3.97;1.05;;;;;;;-0.34;100.00;99657.28;5013472;28;19919;-78
2023/03/28 01:03:55;;;;;;;2.75;0.95;;;;;;;-0.35;100.00;99655.56;5015686;28;20475;-78
2023/03/28 01:06:23;;;;;;;3.60;1.35;;;;;;;-0.38;100.00;99655.81;5010595;28;20029;-78
2023/03/28 01:08:49;;;;;;;9.18;1.25;;;;;;;-0.22;100.00;99664.34;5031075;28;20032;-77
2023/03/28 01:11:16;;;;;;;3.15;1.25;;;;;;;-0.29;100.00;99654.28;5014726;28;20037;-77
2023/03/28 01:13:47;;;;;;;4.43;1.10;;;;;;;-0.30;100.00;99661.41;5015682;28;20021;-78
2023/03/28 01:16:13;;;;;;;2.13;1.00;;;;;;;-0.26;100.00;99672.69;5032518;28;20547;-79
2023/03/28 01:18:40;;;;;;;3.50;0.98;;;;;;;-0.36;100.00;99651.25;5031281;28;20463;-78
2023/03/28 01:21:11;;;;;;;2.45;1.08;;;;;;;-0.27;100.00;99674.47;5012052;28;20034;-78
2023/03/28 01:24:09;;;;;;;6.57;1.15;;;;;;;-0.27;100.00;99674.47;5033129;28;20040;-78
2023/03/28 01:26:46;;;;;;;1.83;1.17;;;;;;;-0.37;100.00;99677.91;4985390;28;20041;-78
2023/03/28 01:29:31;;;;;;;1.98;1.05;;;;;;;-0.43;100.00;99668.59;5030937;28;20030;-78
2023/03/28 01:32:18;;;;;;;2.95;1.20;;;;;;;-0.31;100.00;99688.13;5030372;28;20026;-78
2023/03/28 01:34:58;;;;;;;2.35;1.23;;;;;;;-0.31;100.00;99693.44;5009071;28;20525;-78
2023/03/28 01:37:40;;;;;;;3.22;1.50;;;;;;;-0.25;100.00;99688.50;5014053;28;20040;-78
2023/03/28 01:40:29;;;;;;;3.70;1.17;;;;;;;-0.25;100.00;99688.50;5019105;28;20034;-78
2023/03/28 01:43:04;;;;;;;3.65;0.80;;;;;;;-0.27;100.00;99695.75;5036622;28;20383;-78
2023/03/28 01:46:01;;;;;;;3.22;1.13;;;;;;;-0.33;100.00;99685.56;5039326;28;20025;-78
2023/03/28 01:48:35;;;;;;;6.20;1.20;;;;;;;-0.32;100.00;99697.03;5016955;28;20080;-78
2023/03/28 01:51:17;;;;;;;2.70;1.60;;;;;;;-0.43;100.00;99697.84;5034984;28;20025;-78
2023/03/28 01:53:54;;;;;;;2.05;0.80;;;;;;;-0.50;100.00;99700.09;5036076;28;20059;-78
2023/03/28 01:56:34;;;;;;;3.08;0.95;;;;;;;-0.55;100.00;99698.72;5035346;28;20049;-78
2023/03/28 01:59:16;;;;;;;1.95;1.00;;;;;;;-0.67;100.00;99706.63;5033114;28;20339;-78
2023/03/28 02:01:49;;;;;;;5.82;1.20;;;;;;;-0.73;100.00;99709.72;5023759;28;20109;-78
2023/03/28 02:04:19;;;;;;;1.77;1.13;;;;;;;-0.81;100.00;99698.78;5035784;28;20056;-77
2023/03/28 02:06:46;;;;;;;5.78;1.50;;;;;;;-1.08;100.00;99668.84;5035816;28;20025;-77
2023/03/28 02:09:14;;;;;;;6.28;1.52;;;;;;;-0.99;100.00;99687.66;5049599;28;20530;-78
2023/03/28 02:11:40;;;;;;;4.50;1.30;;;;;;;-0.88;100.00;99713.47;5021020;28;20018;-77
2023/03/28 02:14:15;;;;;;;2.30;1.13;;;;;;;-1.04;100.00;99686.28;5034867;28;20045;-78
2023/03/28 02:16:43;;;;;;;2.58;1.20;;;;;;;-0.89;100.00;99719.75;5030981;28;20017;-78
2023/03/28 02:19:11;;;;;;;5.13;1.23;;;;;;;-0.96;100.00;99707.84;5015089;28;20014;-78
2023/03/28 02:21:50;;;;;;;3.38;1.40;;;;;;;-0.99;100.00;99703.59;5030602;28;20471;-78
2023/03/28 02:24:15;;;;;;;3.15;1.58;;;;;;;-0.82;100.00;99715.66;5022390;28;20033;-77
2023/03/28 02:26:42;;;;;;;3.85;1.35;;;;;;;-0.93;100.00;99697.84;5016685;28;20032;-78
2023/03/28 02:29:09;;;;;;;2.88;1.10;;;;;;;-0.95;100.00;99704.22;5035036;28;20021;-78
2023/03/28 02:31:35;;;;;;;2.67;1.45;;;;;;;-0.90;100.00;99718.88;5008858;28;20471;-78
2023/03/28 02:34:01;;;;;;;7.82;1.58;;;;;;;-1.10;100.00;99698.19;5016543;28;20051;-77
2023/03/28 02:36:34;;;;;;;4.18;1.50;;;;;;;-1.03;100.00;99723.34;5036103;28;20037;-79
2023/03/28 02:39:53;;;;;;;1.92;1.13;;;;;;;-1.07;100.00;99716.56;5034558;28;20029;-78
2023/03/28 02:42:43;;;;;;;5.45;1.30;;;;;;;-1.13;100.00;99706.34;4974878;28;20034;-78
2023/03/28 02:45:46;;;;;;;7.38;1.90;;;;;;;-1.05;100.00;99719.09;5021742;28;20079;-78
2023/03/28 02:48:45;;;;;;;2.58;1.25;;;;;;;-1.12;100.00;99719.53;5012817;28;20034;-78
2023/03/28 02:51:28;;;;;;;5.63;1.25;;;;;;;-1.21;100.00;99709.53;5037760;28;20029;-78
2023/03/28 02:53:57;;;;;;;5.13;1.55;;;;;;;-1.23;100.00;99723.88;5015844;28;20037;-78
2023/03/28 02:56:44;;;;;;;2.10;1.38;;;;;;;-1.40;100.00;99715.25;5023977;28;20044;-78
2023/03/28 02:59:17;;;;;;;4.07;1.80;;;;;;;-1.57;100.00;99719.09;5039082;28;20033;-78
2023/03/28 03:01:43;;;;;;;11.52;1.73;;;;;;;-1.53;100.00;99729.47;5012488;28;20108;-78
2023/03/28 03:04:16;;;;;;;8.57;1.90;;;;;;;-1.61;100.00;99728.19;5038031;28;20533;-78
2023/03/28 03:06:41;;;;;;;4.68;1.88;;;;;;;-1.57;100.00;99731.50;5026430;28;20082;-78
2023/03/28 03:09:07;;;;;;;8.82;2.30;;;;;;;-1.58;100.00;99727.97;5018428;28;20025;-78
2023/03/28 03:11:32;;;;;;;6.63;2.13;;;;;;;-1.62;100.00;99713.22;5010305;28;20021;-78
2023/03/28 03:13:59;;;;;;;8.32;2.20;;;;;;;-1.65;100.00;99721.41;5030658;28;20060;-78
2023/03/28 03:16:27;;;;;;;3.90;1.90;;;;;;;-1.72;100.00;99714.81;5022659;28;20029;-77
2023/03/28 03:19:02;;;;;;;6.47;2.15;;;;;;;-1.79;100.00;99703.75;5016525;28;20021;-78
2023/03/28 03:21:27;;;;;;;4.32;1.58;;;;;;;-1.65;100.00;99726.72;5036096;28;20102;-79
2023/03/28 03:23:55;;;;;;;5.88;1.60;;;;;;;-1.75;100.00;99708.88;5019788;28;20026;-78
2023/03/28 03:26:21;;;;;;;3.27;1.73;;;;;;;-1.65;100.00;99739.09;5037288;28;20036;-79
2023/03/28 03:28:48;;;;;;;4.93;1.83;;;;;;;-1.75;100.00;99715.00;5005169;28;20277;-80
2023/03/28 03:31:13;;;;;;;8.80;2.13;;;;;;;-1.85;100.00;99727.19;5017778;28;20491;-76
2023/03/28 03:33:40;;;;;;;5.20;1.80;;;;;;;-1.89;100.00;99728.31;5024421;28;20025;-79
2023/03/28 03:36:07;;;;;;;4.57;1.95;;;;;;;-2.06;100.00;99695.81;5026877;28;20115;-78
2023/03/28 03:38:34;;;;;;;3.53;1.80;;;;;;;-1.90;100.00;99731.94;5016570;28;20020;-79
2023/03/28 03:41:00;;;;;;;3.83;1.98;;;;;;;-2.00;100.00;99710.47;5020316;28;20026;-77
2023/03/28 03:43:26;;;;;;;11.27;2.53;;;;;;;-1.92;100.00;99729.38;5030172;28;20087;-77
2023/03/28 03:45:52;;;;;;;7.13;2.60;;;;;;;-1.86;100.00;99744.91;5026935;28;20544;-76
2023/03/28 03:48:17;;;;;;;6.25;2.38;;;;;;;-2.10;100.00;99715.53;5033159;28;20108;-77
2023/03/28 03:50:42;;;;;;;4.05;2.30;;;;;;;-1.97;100.00;99742.09;5015926;28;20034;-79
2023/03/28 03:53:12;;;;;;;4.75;2.38;;;;;;;-1.94;100.00;99746.34;4999698;28;20048;-79
2023/03/28 03:55:41;;;;;;;6.82;2.33;;;;;;;-2.05;100.00;99725.84;5010877;28;20025;-81
2023/03/28 03:58:06;;;;;;;;;;;;;;;-1.96;100.00;99743.81;5021453;28;20033;-80
2023/03/28 04:00:32;;;;;;;5.50;2.50;;;;;;;-2.00;100.00;99745.78;5033188;23;20032;-69
2023/03/28 04:02:57;;;;;;;10.15;2.85;;;;;;;-2.02;100.00;99742.41;5013054;28;20076;-69
2023/03/28 04:05:23;;;;;;;8.43;3.20;;;;;;;-2.08;100.00;99739.31;5002185;28;20085;-69
2023/03/28 04:07:49;;;;;;;9.43;4.03;;;;;;;-2.16;100.00;99742.44;4989464;28;20026;-69
2023/03/28 04:12:47;;;;;;;10.68;3.45;;;;;;;-2.46;100.00;99729.38;5001923;28;20564;-75
2023/03/28 04:15:13;;;;;;;7.80;3.50;;;;;;;-2.53;100.00;99736.84;4994849;28;20034;-74
2023/03/28 04:17:40;;;;;;;8.93;3.60;;;;;;;-2.54;100.00;99736.94;4999773;28;20034;-75
2023/03/28 04:20:12;;;;;;;10.93;3.45;;;;;;;-2.57;100.00;99743.28;5015813;28;20025;-75
2023/03/28 04:22:39;;;;;;;8.27;3.63;;;;;;;-2.67;100.00;99728.94;5003636;28;20037;-75
2023/03/28 04:25:06;;;;;;;7.22;3.38;;;;;;;-2.70;100.00;99737.94;5012044;28;20037;-77
2023/03/28 04:27:31;;;;;;;8.35;2.97;;;;;;;-2.69;100.00;99733.47;4979985;28;20538;-76
2023/03/28 04:29:59;;;;;;;9.35;3.35;;;;;;;-2.75;100.00;99737.38;5011405;28;20054;-77
2023/03/28 04:32:25;;;;;;;11.90;2.67;;;;;;;-2.75;100.00;99749.75;4991660;28;20085;-77
2023/03/28 04:34:50;;;;;;;7.05;3.05;;;;;;;-2.81;100.00;99747.50;5012329;28;20030;-77
2023/03/28 04:37:17;;;;;;;7.85;3.40;;;;;;;-2.77;100.00;99772.84;4991740;28;20076;-76
2023/03/28 04:39:46;;;;;;;9.27;3.35;;;;;;;-3.09;100.00;99728.03;5014580;28;20028;-75
2023/03/28 04:42:13;;;;;;;8.05;3.28;;;;;;;-2.81;100.00;99780.09;4997401;28;20025;-76
2023/03/28 04:44:38;;;;;;;7.07;3.08;;;;;;;-2.99;100.00;99763.53;4988375;28;20117;-76
2023/03/28 04:47:07;;;;;;;6.75;3.33;;;;;;;-2.88;100.00;99782.31;5008291;28;20061;-77
2023/03/28 04:49:33;;;;;;;5.63;3.00;;;;;;;-2.97;100.00;99776.72;4988892;28;20025;-78
2023/03/28 04:51:58;;;;;;;5.82;2.90;;;;;;;-2.99;100.00;99779.44;5007310;28;20029;-73
2023/03/28 04:54:23;;;;;;;8.63;3.20;;;;;;;-2.94;100.00;99785.31;5020742;28;20034;-74
2023/03/28 04:56:49;;;;;;;10.18;3.28;;;;;;;-2.91;100.00;99786.91;4995515;28;20026;-76
2023/03/28 04:59:16;;;;;;;5.53;3.10;;;;;;;-3.01;100.00;99801.66;5014594;28;20030;-79
2023/03/28 05:01:47;;;;;;;6.25;3.25;;;;;;;-3.10;100.00;99797.78;4998774;28;20022;-77
2023/03/28 05:04:13;;;;;;;7.32;2.88;;;;;;;-3.42;100.00;99775.88;5000387;28;20415;-77
2023/03/28 05:06:45;;;;;;;4.20;2.70;;;;;;;-3.23;100.00;99796.81;5016140;28;20129;-77
2023/03/28 05:09:11;;;;;;;10.07;3.38;;;;;;;-3.19;100.00;99811.56;4995286;28;20037;-74
2023/03/28 05:11:37;;;;;;;13.55;3.78;;;;;;;-3.44;100.00;99783.91;4992532;28;20076;-74
2023/03/28 05:14:02;;;;;;;7.55;2.97;;;;;;;-3.18;100.00;99802.69;4990426;28;20064;-76
2023/03/28 05:16:28;;;;;;;9.95;3.47;;;;;;;-3.00;100.00;99830.69;4999445;28;20415;-77
2023/03/28 05:22:22;;;;;;;6.70;3.10;;;;;;;-2.91;100.00;99819.56;5033077;28;20507;-78
2023/03/28 05:24:47;;;;;;;7.72;3.38;;;;;;;-3.11;100.00;99802.22;5025640;28;20030;-76
2023/03/28 05:27:13;;;;;;;16.23;3.10;;;;;;;-3.17;100.00;99768.19;4996475;28;20076;-77
2023/03/28 05:29:38;;;;;;;8.93;3.40;;;;;;;-2.85;100.00;99812.19;4995624;28;20025;-76
2023/03/28 05:32:36;;;;;;;8.63;4.18;;;;;;;-2.69;100.00;99824.38;5020411;28;20033;-77
2023/03/28 05:35:06;;;;;;;7.10;2.88;;;;;;;-2.82;100.00;99807.56;5014345;28;20041;-74
2023/03/28 05:37:32;;;;;;;11.75;4.13;;;;;;;-2.77;100.00;99780.78;4991384;28;20034;-75
2023/03/28 05:39:57;;;;;;;13.88;3.65;;;;;;;-2.55;100.00;99804.13;4998562;28;20030;-77
2023/03/28 05:42:22;;;;;;;6.80;3.40;;;;;;;-2.19;100.00;99840.72;5010811;28;20057;-78
2023/03/28 05:44:47;;;;;;;7.50;3.28;;;;;;;-2.28;100.00;99820.09;5004073;28;20076;-77
2023/03/28 05:47:13;;;;;;;6.00;3.28;;;;;;;-2.12;100.00;99825.28;5000059;28;20033;-77
2023/03/28 05:49:38;;;;;;;5.95;2.72;;;;;;;-2.16;100.00;99794.63;4999197;28;20018;-77
2023/03/28 05:52:05;;;;;;;7.53;3.03;;;;;;;-0.52;100.00;99818.13;5013648;28;20436;-77
2023/03/28 05:54:30;;;;;;;13.32;3.33;;;;;;;2.31;100.00;99723.53;4969529;28;20045;-76
2023/03/28 05:56:56;;;;;;;9.00;3.45;;;;;;;5.31;100.00;99778.00;4996611;28;20092;-75
2023/03/28 05:59:23;;;;;;;10.73;4.75;;;;;;;6.77;100.00;99782.59;5004519;28;20021;-76
2023/03/28 06:01:51;;;;;;;7.22;3.47;;;;;;;7.39;100.00;99769.94;5016564;28;20502;-76
2023/03/28 06:07:48;;;;;;;9.73;2.90;;;;;;;8.43;85.51;99800.34;4998337;28;20474;-76
2023/03/28 06:10:16;;;;;;;5.10;2.58;;;;;;;9.47;73.74;99798.88;4986666;28;20034;-74
2023/03/28 06:12:41;;;;;;;10.90;2.38;;;;;;;11.08;68.94;99799.25;5003829;28;20054;-74
2023/03/28 06:15:09;;;;;;;5.20;2.05;;;;;;;13.08;59.04;99789.16;5008971;28;20077;-76
2023/03/28 06:17:34;;;;;;;7.38;2.80;;;;;;;13.34;54.09;99803.00;5001767;28;20029;-74
2023/03/28 06:19:59;;;;;;;6.15;2.85;;;;;;;12.96;54.97;99796.16;5011908;28;20534;-76
2023/03/28 06:22:25;;;;;;;9.00;2.50;;;;;;;14.75;51.71;99788.25;5014418;28;20029;-74
2023/03/28 06:24:51;;;;;;;8.85;2.60;;;;;;;17.06;45.18;99804.34;5013607;28;20464;-75
2023/03/28 06:27:16;;;;;;;10.20;2.45;;;;;;;16.47;44.75;99797.31;4993002;28;20021;-75
2023/03/28 06:29:41;;;;;;;10.32;2.50;;;;;;;16.42;44.67;99811.59;5005735;28;20077;-76
2023/03/28 06:32:06;;;;;;;5.63;2.00;;;;;;;16.06;45.16;99793.03;4990967;28;20037;-75
2023/03/28 06:34:32;;;;;;;7.82;2.13;;;;;;;17.09;44.12;99782.03;5002838;28;20026;-75
2023/03/28 06:36:58;;;;;;;7.68;2.05;;;;;;;18.43;41.21;99785.13;5014853;28;20021;-75
2023/03/28 06:39:24;;;;;;;5.82;1.77;;;;;;;18.46;40.41;99801.09;5013193;28;20018;-75
2023/03/28 06:41:49;;;;;;;5.47;1.70;;;;;;;18.74;39.67;99802.41;5008831;28;20022;-74
2023/03/28 06:44:15;;;;;;;6.53;2.05;;;;;;;17.47;40.78;99805.69;5009813;28;20395;-75
2023/03/28 06:46:40;;;;;;;5.93;2.05;;;;;;;17.70;40.13;99794.13;5013445;28;20030;-78
2023/03/28 06:49:05;;;;;;;4.63;1.90;;;;;;;17.29;42.01;99806.47;4988836;28;20069;-76
2023/03/28 06:51:31;;;;;;;6.93;1.95;;;;;;;18.67;39.77;99812.63;5008201;28;20053;-75
2023/03/28 06:53:56;;;;;;;5.80;2.17;;;;;;;19.82;37.33;99801.34;4990230;28;20034;-78
2023/03/28 06:56:21;;;;;;;4.75;2.28;;;;;;;19.51;38.42;99797.00;4989047;28;20124;-75
2023/03/28 06:58:47;;;;;;;7.10;2.75;;;;;;;19.78;37.78;99802.91;5019055;28;20051;-76
2023/03/28 07:01:12;;;;;;;7.03;3.00;;;;;;;19.79;36.36;99818.31;4983752;28;20038;-79
2023/03/28 07:03:37;;;;;;;4.15;1.98;;;;;;;19.58;38.12;99800.47;4993124;28;20022;-75
2023/03/28 07:06:05;;;;;;;7.40;2.53;;;;;;;20.05;37.60;99827.13;5006564;28;20019;-74
2023/03/28 07:08:30;;;;;;;4.38;2.28;;;;;;;19.96;37.35;99807.41;5007397;28;20029;-77
2023/03/28 07:10:55;;;;;;;6.40;2.63;;;;;;;20.02;36.72;99808.41;5014545;28;20030;-76
2023/03/28 07:13:21;;;;;;;5.97;2.85;;;;;;;19.36;37.21;99822.19;4989076;28;20109;-77
2023/03/28 07:15:46;;;;;;;10.32;2.92;;;;;;;19.12;37.52;99806.72;5011293;28;20033;-77
2023/03/28 07:18:12;;;;;;;8.95;2.83;;;;;;;18.68;37.84;99825.25;4989334;28;20110;-76
2023/03/28 07:20:40;;;;;;;6.95;3.20;;;;;;;17.90;40.08;99835.03;4995357;28;20365;-76
2023/03/28 07:23:06;;;;;;;5.13;2.67;;;;;;;16.82;41.37;99831.41;4990253;28;20025;-77
2023/03/28 07:25:31;;;;;;;4.88;2.63;;;;;;;17.24;41.32;99836.41;4998053;28;20449;-76
2023/03/28 07:27:56;;;;;;;6.13;2.63;;;;;;;18.37;39.23;99833.44;5000046;28;20500;-77
2023/03/28 07:30:22;;;;;;;6.03;2.63;;;;;;;19.05;38.74;99824.13;4994719;28;20026;-76
2023/03/28 07:32:47;;;;;;;5.95;2.45;;;;;;;19.94;37.12;99817.84;5007589;28;20026;-76
2023/03/28 07:35:12;;;;;;;5.60;2.20;;;;;;;19.59;37.79;99823.28;4988281;28;20038;-76
2023/03/28 07:37:37;;;;;;;4.18;2.22;;;;;;;20.22;37.56;99829.97;5013701;28;20109;-77
2023/03/28 07:40:04;;;;;;;4.70;2.13;;;;;;;21.67;35.13;99814.88;5012622;28;20021;-77
2023/03/28 07:42:30;;;;;;;7.43;3.00;;;;;;;21.37;34.99;99825.34;4996048;28;20052;-76
2023/03/28 07:44:55;;;;;;;5.70;2.40;;;;;;;24.15;32.17;99828.34;4996162;28;20026;-77
2023/03/28 07:47:21;;;;;;;6.85;2.60;;;;;;;25.08;31.32;99828.47;4987720;28;20691;-77
2023/03/28 07:49:46;;;;;;;7.00;2.20;;;;;;;24.23;30.66;99812.09;5013201;28;20033;-76
2023/03/28 07:52:12;;;;;;;5.45;2.42;;;;;;;23.49;31.09;99839.75;4997939;28;20063;-76
2023/03/28 07:54:38;;;;;;;6.55;1.45;;;;;;;22.43;31.60;99827.28;5002312;28;20537;-77
2023/03/28 07:57:03;;;;;;;4.80;1.67;;;;;;;22.80;31.67;99837.66;5002054;28;20014;-77
2023/03/28 07:59:29;;;;;;;6.13;1.80;;;;;;;23.40;31.78;99812.59;5014761;28;20503;-77
2023/03/28 08:01:54;;;;;;;6.35;1.80;;;;;;;21.53;32.86;99819.03;4997610;28;20029;-77
2023/03/28 08:04:20;;;;;;;5.38;1.95;;;;;;;23.51;32.05;99837.56;4985534;28;20454;-76
2023/03/28 08:06:46;;;;;;;4.80;1.65;;;;;;;22.11;31.80;99836.16;4993284;28;20022;-77
2023/03/28 08:09:14;;;;;;;7.20;1.92;;;;;;;20.27;34.13;99844.66;4996578;28;20487;-77
2023/03/28 08:11:41;;;;;;;6.35;1.90;;;;;;;22.58;32.09;99810.06;4995769;28;20034;-77
2023/03/28 08:14:09;;;;;;;4.88;1.83;;;;;;;21.76;32.44;99822.72;4999754;28;20034;-77
2023/03/28 08:16:34;;;;;;;4.67;1.33;;;;;;;23.35;31.39;99844.88;5004908;28;20026;-77
2023/03/28 08:19:00;;;;;;;4.28;1.35;;;;;;;24.20;29.12;99851.34;4990020;28;20030;-77
2023/03/28 08:21:26;;;;;;;5.53;1.67;;;;;;;23.06;30.66;99842.38;4996854;28;20033;-77
2023/03/28 08:23:52;;;;;;;3.63;1.40;;;;;;;24.48;29.22;99841.00;5017632;28;20393;-77
2023/03/28 08:26:17;;;;;;;9.63;1.58;;;;;;;24.62;29.76;99850.47;4996386;28;20033;-77
2023/03/28 08:28:43;;;;;;;6.75;1.50;;;;;;;20.51;31.93;99853.72;5017621;28;20123;-77
2023/03/28 08:31:12;;;;;;;6.95;1.65;;;;;;;23.36;31.06;99852.88;4995766;28;20123;-77
2023/03/28 08:33:39;;;;;;;5.55;2.00;;;;;;;25.71;29.62;99836.56;5004782;28;20028;-77
2023/03/28 08:36:05;;;;;;;6.88;1.42;;;;;;;28.08;27.05;99843.44;5013976;28;20030;-77
2023/03/28 08:38:31;;;;;;;4.25;1.27;;;;;;;24.46;29.32;99834.91;5018178;28;20021;-76
2023/03/28 08:41:16;;;;;;;6.15;1.35;;;;;;;20.33;33.48;99873.06;5010017;28;20026;-77
2023/03/28 08:43:59;;;;;;;3.60;1.27;;;;;;;17.69;35.70;99875.41;5012792;28;20089;-77
2023/03/28 08:46:27;;;;;;;5.47;1.55;;;;;;;17.38;37.56;99864.50;5011164;28;20042;-77
2023/03/28 08:48:54;;;;;;;7.20;1.83;;;;;;;21.97;33.09;99849.47;5005947;28;20030;-77
2023/03/28 08:51:30;;;;;;;7.18;1.30;;;;;;;23.20;29.58;99848.31;4984220;28;20387;-77
2023/03/28 08:54:24;;;;;;;3.13;0.80;;;;;;;27.39;25.88;99852.94;4990331;28;20415;-77
2023/03/28 08:56:52;;;;;;;3.38;1.02;;;;;;;28.32;24.37;99850.97;5011816;28;20048;-77
2023/03/28 08:59:51;;;;;;;5.63;1.15;;;;;;;22.73;29.07;99855.22;4990761;28;20072;-77
2023/03/28 09:02:20;;;;;;;8.80;1.27;;;;;;;19.31;32.08;99863.22;4986514;28;20041;-77
2023/03/28 09:04:46;;;;;;;5.03;1.43;;;;;;;19.91;33.31;99854.84;4989238;28;20034;-77
2023/03/28 09:07:38;;;;;;;5.72;1.48;;;;;;;23.43;29.56;99846.31;4991562;28;20172;-77
2023/03/28 09:10:23;;;;;;;3.42;1.00;;;;;;;20.85;31.34;99864.84;4982424;28;20026;-77
2023/03/28 09:13:07;;;;;;;6.05;1.13;;;;;;;15.51;36.37;99878.75;4986187;28;20148;-78
2023/03/28 09:16:05;;;;;;;5.30;1.05;;;;;;;12.31;41.12;99882.06;5011309;28;20053;-78
2023/03/28 09:18:36;;;;;;;3.30;0.98;;;;;;;14.27;40.81;99867.22;4990715;28;20033;-76
2023/03/28 09:21:04;;;;;;;3.60;1.23;;;;;;;19.71;34.33;99868.09;5005849;28;20046;-80
2023/03/28 09:23:40;;;;;;;1.90;0.87;;;;;;;21.01;31.57;99852.22;5003771;28;20036;-76
2023/03/28 09:26:13;;;;;;;5.70;1.30;;;;;;;24.34;29.32;99856.38;5014918;28;20053;-80
2023/03/28 09:28:58;;;;;;;4.03;1.00;;;;;;;25.65;27.88;99840.47;5013834;28;20492;-79
2023/03/28 09:31:30;;;;;;;5.93;1.40;;;;;;;25.74;25.95;99835.19;4989764;28;20056;-81
2023/03/28 09:33:58;;;;;;;5.82;1.00;;;;;;;28.07;24.87;99839.00;4999038;28;20033;-77
2023/03/28 09:36:29;;;;;;;4.90;1.10;;;;;;;23.12;27.56;99837.75;5002983;28;20030;-76
2023/03/28 09:38:59;;;;;;;6.63;1.42;;;;;;;18.71;31.65;99858.53;4993911;28;20502;-75
2023/03/28 09:41:31;;;;;;;7.25;1.35;;;;;;;20.97;30.39;99859.31;4993861;28;20104;-75
2023/03/28 09:44:00;;;;;;;7.55;1.42;;;;;;;21.67;30.09;99847.94;4997111;28;20662;-75
2023/03/28 09:46:33;;;;;;;6.18;1.08;;;;;;;23.93;28.07;99831.28;5008438;28;20057;-75
2023/03/28 09:48:58;;;;;;;2.95;0.90;;;;;;;25.91;25.64;99826.59;5018392;28;20080;-75
2023/03/28 09:51:24;;;;;;;6.40;0.90;;;;;;;25.41;26.78;99848.47;4993323;28;20113;-75
2023/03/28 09:53:49;;;;;;;4.93;0.90;;;;;;;25.69;25.49;99830.47;4987157;28;20391;-75
2023/03/28 09:56:27;;;;;;;6.30;1.10;;;;;;;22.51;27.71;99827.66;4990756;28;20033;-75
2023/03/28 09:58:57;;;;;;;3.17;1.07;;;;;;;19.85;30.18;99842.06;5011860;28;20030;-75
2023/03/28 10:01:30;;;;;;;4.97;1.17;;;;;;;16.77;33.23;99861.31;5008303;28;20125;-75
2023/03/28 10:03:56;;;;;;;8.00;1.30;;;;;;;14.36;36.40;99847.81;4989498;28;20373;-75
2023/03/28 10:06:31;;;;;;;5.43;1.42;;;;;;;13.58;38.31;99849.84;5005357;28;20033;-75
2023/03/28 10:09:16;;;;;;;3.20;0.95;;;;;;;12.43;40.42;99865.13;4994985;28;20033;-76
2023/03/28 10:11:56;;;;;;;5.38;1.10;;;;;;;12.52;39.89;99871.28;4994942;28;20510;-76
2023/03/28 10:14:39;;;;;;;4.28;1.17;;;;;;;11.55;40.82;99863.19;5006423;28;20065;-76
2023/03/28 10:17:28;;;;;;;3.45;1.13;;;;;;;11.54;41.80;99853.38;5003600;28;20509;-76
2023/03/28 10:20:00;;;;;;;3.40;1.00;;;;;;;11.08;42.71;99834.47;5014616;28;20482;-76
2023/03/28 10:22:29;;;;;;;8.30;0.90;;;;;;;11.15;42.78;99838.97;5033324;28;20025;-76
2023/03/28 10:24:56;;;;;;;5.22;0.80;;;;;;;12.31;43.32;99849.50;5017006;28;20030;-75
2023/03/28 10:27:33;;;;;;;3.28;0.88;;;;;;;16.88;38.38;99831.59;4998746;28;20029;-76
2023/03/28 10:30:12;;;;;;;2.97;0.75;;;;;;;19.47;33.00;99807.63;4999322;28;20033;-77
2023/03/28 10:32:38;;;;;;;5.97;1.10;;;;;;;19.69;30.44;99821.63;5006963;28;20033;-76
2023/03/28 10:35:15;;;;;;;7.20;1.15;;;;;;;17.36;34.79;99810.00;5020024;28;20026;-76
2023/03/28 10:37:41;;;;;;;5.80;1.02;;;;;;;16.01;34.95;99796.44;5012936;28;20474;-76
2023/03/28 10:40:28;;;;;;;3.70;1.10;;;;;;;18.32;32.81;99810.56;4998332;28;20052;-76
2023/03/28 10:42:55;;;;;;;3.10;0.85;;;;;;;22.31;29.56;99775.84;4992790;28;20403;-77
2023/03/28 10:45:34;;;;;;;3.80;1.40;;;;;;;26.99;25.09;99788.16;5015685;28;20108;-75
2023/03/28 10:48:13;;;;;;;2.08;0.88;;;;;;;26.20;24.49;99794.34;5015550;28;20032;-75
2023/03/28 10:50:45;;;;;;;4.43;1.23;;;;;;;26.93;25.47;99792.91;4999125;28;20350;-75
2023/03/28 10:53:30;;;;;;;2.33;0.90;;;;;;;27.20;23.19;99800.00;4996163;28;20028;-75
2023/03/28 10:56:23;;;;;;;3.20;1.00;;;;;;;27.97;24.10;99791.81;4977736;28;20030;-76
2023/03/28 10:58:54;;;;;;;3.95;0.95;;;;;;;23.40;25.63;99801.56;4999256;28;20026;-76
2023/03/28 11:01:25;;;;;;;3.53;0.80;;;;;;;23.45;25.61;99775.06;4994391;28;20054;-75
2023/03/28 11:04:18;;;;;;;1.92;0.63;;;;;;;28.54;25.24;99798.41;5015852;28;20029;-75
2023/03/28 11:07:00;;;;;;;2.75;0.70;;;;;;;31.06;22.33;99781.63;5020787;28;20034;-76
2023/03/28 11:09:38;;;;;;;3.97;0.77;;;;;;;26.77;22.71;99792.16;4996445;28;20452;-76
2023/03/28 11:12:16;;;;;;;3.38;1.02;;;;;;;23.03;26.56;99800.66;5011934;28;20482;-76
2023/03/28 11:14:59;;;;;;;2.53;1.00;;;;;;;19.51;29.33;99801.66;4994213;28;20109;-76
2023/03/28 11:17:33;;;;;;;2.70;0.90;;;;;;;18.48;30.53;99798.97;5021759;28;20376;-76
2023/03/28 11:20:27;;;;;;;1.88;0.90;;;;;;;18.07;32.09;99792.28;5010021;28;20439;-76
2023/03/28 11:23:01;;;;;;;2.33;0.73;;;;;;;16.34;32.90;99757.22;4996040;28;20045;-80
2023/03/28 11:25:55;;;;;;;2.85;0.98;;;;;;;17.74;32.50;99776.19;5001978;28;20036;-77
2023/03/28 11:28:50;;;;;;;4.03;0.95;;;;;;;18.83;30.23;99795.56;4986077;28;20069;-76
2023/03/28 11:31:25;;;;;;;3.28;1.00;;;;;;;19.09;29.96;99786.09;4984820;28;20038;-76
2023/03/28 11:33:56;;;;;;;5.25;1.05;;;;;;;22.35;27.64;99767.03;5004508;28;20630;-76
2023/03/28 11:36:28;;;;;;;4.70;1.20;;;;;;;23.94;25.23;99770.19;5012570;28;20217;-75
2023/03/28 11:39:19;;;;;;;4.30;0.90;;;;;;;21.48;26.36;99772.16;5014190;28;20085;-76
2023/03/28 11:41:48;;;;;;;1.77;0.68;;;;;;;22.63;26.98;99772.34;5014968;28;20026;-75
2023/03/28 11:44:19;;;;;;;5.15;0.80;;;;;;;22.81;27.46;99767.56;4995298;28;20499;-74
2023/03/28 11:46:55;;;;;;;3.90;1.00;;;;;;;24.11;25.35;99731.31;5014589;28;20104;-75
2023/03/28 11:49:34;;;;;;;2.65;0.90;;;;;;;25.28;26.41;99749.28;4996893;28;20022;-75
2023/03/28 11:52:19;;;;;;;3.95;1.00;;;;;;;24.36;25.25;99722.25;4997481;28;20028;-75
2023/03/28 11:54:49;;;;;;;4.35;1.00;;;;;;;21.32;27.17;99751.78;5018344;28;20023;-77
2023/03/28 11:57:20;;;;;;;3.28;1.00;;;;;;;22.76;27.39;99740.75;5008476;28;20046;-79